createdAt,value
2023-08-25T00:00:39.519Z,4.50
2023-08-25T00:03:07.826Z,4.80
2023-08-25T00:05:39.572Z,4.60
2023-08-25T00:08:08.060Z,4.70
2023-08-25T00:10:35.882Z,5.20
2023-08-25T00:13:03.879Z,5.10
2023-08-25T00:15:31.332Z,5.60
2023-08-25T00:17:59.056Z,4.60
2023-08-25T00:20:26.999Z,5.20
2023-08-25T00:22:54.346Z,4.40
2023-08-25T00:25:21.831Z,4.60
2023-08-25T00:27:49.756Z,4.40
2023-08-25T00:30:17.385Z,5.90
2023-08-25T00:32:45.301Z,5.20
2023-08-25T00:35:12.787Z,5.00
2023-08-25T00:37:40.313Z,5.20
2023-08-25T00:40:08.863Z,5.00
2023-08-25T00:42:36.394Z,5.90
2023-08-25T00:45:05.170Z,5.00
2023-08-25T00:47:32.824Z,4.90
2023-08-25T00:50:00.658Z,4.60
2023-08-25T00:52:28.549Z,5.40
2023-08-25T00:54:57.320Z,5.10
2023-08-25T00:57:24.968Z,5.50
2023-08-25T00:59:52.701Z,5.90
2023-08-25T01:02:20.829Z,4.90
2023-08-25T01:04:48.466Z,4.70
2023-08-25T01:07:15.869Z,5.20
2023-08-25T01:09:43.703Z,5.10
2023-08-25T01:12:22.778Z,5.10
2023-08-25T01:15:08.330Z,5.00
2023-08-25T01:17:55.757Z,5.30
2023-08-25T01:20:23.855Z,5.20
2023-08-25T01:23:31.469Z,5.30
2023-08-25T01:25:59.533Z,5.20
2023-08-25T01:28:27.579Z,5.20
2023-08-25T01:30:57.744Z,4.90
2023-08-25T01:33:26.415Z,5.10
2023-08-25T01:36:21.654Z,5.00
2023-08-25T01:38:58.564Z,4.50
2023-08-25T01:41:48.069Z,5.00
2023-08-25T01:44:20.227Z,4.80
2023-08-25T01:47:04.592Z,5.70
2023-08-25T01:49:33.332Z,5.30
2023-08-25T01:52:00.839Z,4.90
2023-08-25T01:54:28.250Z,5.20
2023-08-25T01:56:55.648Z,5.40
2023-08-25T01:59:23.103Z,5.30
2023-08-25T02:01:50.648Z,4.50
2023-08-25T02:04:18.195Z,5.10
2023-08-25T02:06:45.586Z,4.90
2023-08-25T02:09:13.116Z,5.10
2023-08-25T02:11:40.506Z,5.10
2023-08-25T02:14:07.894Z,5.70
2023-08-25T02:16:35.354Z,5.10
2023-08-25T02:19:02.882Z,6.30
2023-08-25T02:21:30.204Z,5.50
2023-08-25T02:23:57.655Z,5.40
2023-08-25T02:26:25.924Z,5.30
2023-08-25T02:28:53.810Z,5.20
2023-08-25T02:31:21.267Z,4.90
2023-08-25T02:33:48.772Z,4.90
2023-08-25T02:36:16.257Z,5.40
2023-08-25T02:38:43.744Z,5.40
2023-08-25T02:41:11.103Z,5.50
2023-08-25T02:43:38.530Z,5.60
2023-08-25T02:46:05.990Z,5.30
2023-08-25T02:48:33.459Z,5.20
2023-08-25T02:51:00.798Z,5.30
2023-08-25T02:53:28.204Z,5.20
2023-08-25T02:55:55.591Z,5.80
2023-08-25T02:58:22.961Z,5.40
2023-08-25T03:00:50.675Z,5.90
2023-08-25T03:03:18.289Z,5.80
2023-08-25T03:05:45.847Z,5.70
2023-08-25T03:08:16.811Z,5.80
2023-08-25T03:13:12.827Z,5.70
2023-08-25T03:15:40.589Z,5.90
2023-08-25T03:18:08.337Z,6.00
2023-08-25T03:20:35.792Z,5.50
2023-08-25T03:23:03.350Z,5.70
2023-08-25T03:25:30.727Z,5.80
2023-08-25T03:27:58.611Z,5.40
2023-08-25T03:30:26.616Z,5.90
2023-08-25T03:32:54.072Z,5.40
2023-08-25T03:35:21.624Z,5.50
2023-08-25T03:37:50.247Z,5.50
2023-08-25T03:40:20.614Z,5.90
2023-08-25T03:42:48.024Z,5.90
2023-08-25T03:45:16.193Z,5.90
2023-08-25T03:47:43.837Z,5.90
2023-08-25T03:50:11.899Z,5.80
2023-08-25T03:52:39.553Z,5.20
2023-08-25T03:55:07.908Z,5.60
2023-08-25T03:57:35.289Z,5.50
2023-08-25T04:00:04.985Z,5.30
2023-08-25T04:02:32.458Z,5.40
2023-08-25T04:05:00.162Z,5.30
2023-08-25T04:07:27.547Z,5.10
2023-08-25T04:09:56.564Z,6.30
2023-08-25T04:12:23.965Z,5.50
2023-08-25T04:14:51.428Z,5.20
2023-08-25T04:17:18.817Z,5.90
2023-08-25T04:19:48.392Z,6.10
2023-08-25T04:22:15.846Z,5.50
2023-08-25T04:24:43.434Z,5.50
2023-08-25T04:27:10.869Z,5.90
2023-08-25T04:29:40.619Z,6.10
2023-08-25T04:32:07.992Z,6.20
2023-08-25T04:34:35.412Z,5.90
2023-08-25T04:37:03.167Z,6.00
2023-08-25T04:39:31.126Z,6.10
2023-08-25T04:41:58.499Z,6.10
2023-08-25T04:44:26.037Z,6.60
2023-08-25T04:46:53.481Z,5.90
2023-08-25T04:49:20.840Z,6.30
2023-08-25T04:51:48.319Z,6.10
2023-08-25T04:54:15.941Z,7.00
2023-08-25T04:56:43.389Z,7.60
2023-08-25T04:59:10.784Z,9.10
2023-08-25T05:01:38.301Z,9.50
2023-08-25T05:04:05.901Z,10.80
2023-08-25T05:06:33.317Z,11.80
2023-08-25T05:09:01.114Z,13.20
2023-08-25T05:11:28.579Z,13.30
2023-08-25T05:13:56.086Z,16.30
2023-08-25T05:16:23.533Z,17.10
2023-08-25T05:18:51.004Z,20.40
2023-08-25T05:21:18.454Z,21.20
2023-08-25T05:23:49.864Z,22.40
2023-08-25T05:26:17.367Z,21.20
2023-08-25T05:28:44.772Z,20.60
2023-08-25T05:31:13.000Z,20.60
2023-08-25T05:33:40.516Z,23.30
2023-08-25T05:36:08.101Z,21.20
2023-08-25T05:38:35.516Z,21.50
2023-08-25T05:41:02.960Z,21.30
2023-08-25T05:43:30.462Z,22.10
2023-08-25T05:45:58.211Z,22.60
2023-08-25T05:48:25.651Z,21.90
2023-08-25T05:50:53.054Z,21.20
2023-08-25T05:53:20.962Z,22.80
2023-08-25T05:55:50.518Z,22.70
2023-08-25T05:58:17.938Z,21.00
2023-08-25T06:00:45.425Z,21.20
2023-08-25T06:03:12.877Z,22.30
2023-08-25T06:05:40.335Z,23.30
2023-08-25T06:08:07.720Z,25.80
2023-08-25T06:10:36.329Z,24.40
2023-08-25T06:13:03.941Z,26.20
2023-08-25T06:15:31.515Z,25.70
2023-08-25T06:17:58.949Z,28.10
2023-08-25T06:20:26.538Z,26.10
2023-08-25T06:22:54.391Z,28.20
2023-08-25T06:25:21.943Z,24.80
2023-08-25T06:27:49.623Z,27.40
2023-08-25T06:30:18.838Z,26.60
2023-08-25T06:32:46.319Z,25.50
2023-08-25T06:35:14.183Z,25.10
2023-08-25T06:37:41.765Z,23.20
2023-08-25T06:40:09.906Z,23.20
2023-08-25T06:42:38.381Z,24.10
2023-08-25T06:45:07.134Z,23.30
2023-08-25T06:47:35.727Z,22.60
2023-08-25T06:50:04.068Z,23.10
2023-08-25T06:52:33.152Z,23.90
2023-08-25T06:55:00.585Z,22.40
2023-08-25T06:57:28.005Z,22.30
2023-08-25T06:59:55.375Z,23.20
2023-08-25T07:02:22.789Z,22.70
2023-08-25T07:04:50.382Z,21.30
2023-08-25T07:07:28.390Z,20.70
2023-08-25T07:09:55.824Z,19.90
2023-08-25T07:12:23.296Z,20.20
2023-08-25T07:14:51.249Z,19.40
2023-08-25T07:17:20.575Z,18.80
2023-08-25T07:19:47.997Z,17.20
2023-08-25T07:22:15.586Z,15.70
2023-08-25T07:24:42.976Z,15.30
2023-08-25T07:27:11.368Z,17.20
2023-08-25T07:29:39.064Z,14.70
2023-08-25T07:32:06.788Z,14.60
2023-08-25T07:34:34.217Z,16.00
2023-08-25T07:37:01.647Z,15.00
2023-08-25T07:39:29.230Z,15.10
2023-08-25T07:41:57.251Z,15.20
2023-08-25T07:44:24.702Z,15.30
2023-08-25T07:46:52.233Z,14.50
2023-08-25T07:49:20.621Z,12.90
2023-08-25T07:51:48.006Z,14.10
2023-08-25T07:54:15.609Z,12.10
2023-08-25T07:56:43.250Z,11.60
2023-08-25T07:59:11.386Z,11.80
2023-08-25T08:01:39.444Z,10.70
2023-08-25T08:04:08.880Z,9.80
2023-08-25T08:06:36.862Z,7.60
2023-08-25T08:09:04.907Z,8.00
2023-08-25T08:11:32.380Z,7.40
2023-08-25T08:13:59.784Z,8.00
2023-08-25T08:16:27.645Z,7.80
2023-08-25T08:18:55.194Z,6.80
2023-08-25T08:21:22.797Z,7.60
2023-08-25T08:23:50.215Z,8.10
2023-08-25T08:26:18.652Z,7.60
2023-08-25T08:28:46.180Z,8.30
2023-08-25T08:31:19.709Z,9.00
2023-08-25T08:33:50.375Z,7.80
2023-08-25T08:36:18.508Z,8.70
2023-08-25T08:38:46.002Z,8.60
2023-08-25T08:41:18.694Z,8.60
2023-08-25T08:43:47.280Z,8.40
2023-08-25T08:46:18.302Z,8.60
2023-08-25T08:51:18.898Z,8.00
2023-08-25T08:53:46.670Z,7.20
2023-08-25T08:56:15.793Z,7.00
2023-08-25T08:58:43.790Z,6.20
2023-08-25T09:01:11.712Z,6.60
2023-08-25T09:03:40.950Z,5.30
2023-08-25T09:06:08.751Z,3.40
2023-08-25T09:08:36.924Z,3.40
2023-08-25T09:11:05.851Z,2.90
2023-08-25T09:13:35.028Z,3.00
2023-08-25T09:16:14.588Z,2.80
2023-08-25T09:18:42.128Z,3.20
2023-08-25T09:21:24.083Z,2.60
2023-08-25T09:24:04.233Z,2.00
2023-08-25T09:26:39.985Z,2.00
2023-08-25T09:29:07.373Z,1.70
2023-08-25T09:31:35.457Z,1.90
2023-08-25T09:34:09.061Z,2.00
2023-08-25T09:36:54.680Z,1.90
2023-08-25T09:39:23.016Z,1.90
2023-08-25T09:41:51.115Z,1.80
2023-08-25T09:44:18.964Z,1.80
2023-08-25T09:46:46.682Z,1.80
2023-08-25T09:49:15.758Z,1.80
2023-08-25T09:51:46.107Z,1.70
2023-08-25T09:54:18.230Z,1.80
2023-08-25T09:56:48.122Z,2.00
2023-08-25T09:59:17.220Z,1.80
2023-08-25T10:01:46.800Z,2.20
2023-08-25T10:04:14.824Z,2.00
2023-08-25T10:06:42.647Z,1.90
2023-08-25T10:09:10.449Z,2.00
2023-08-25T10:11:45.460Z,2.40
2023-08-25T10:14:14.858Z,2.40
2023-08-25T10:16:51.600Z,2.80
2023-08-25T10:19:28.059Z,2.50
2023-08-25T10:21:59.647Z,2.50
2023-08-25T10:24:27.458Z,2.30
2023-08-25T10:26:55.303Z,2.10
2023-08-25T10:29:24.940Z,2.50
2023-08-25T10:32:01.744Z,2.60
2023-08-25T10:34:38.748Z,2.90
2023-08-25T10:37:14.571Z,3.10
2023-08-25T10:40:14.857Z,2.70
2023-08-25T10:42:44.895Z,2.80
2023-08-25T10:45:12.514Z,3.00
2023-08-25T10:47:48.286Z,2.90
2023-08-25T10:50:21.828Z,2.90
2023-08-25T10:52:54.228Z,3.00
2023-08-25T10:55:29.847Z,3.00
2023-08-25T10:58:07.975Z,2.50
2023-08-25T11:00:44.767Z,2.70
2023-08-25T11:03:12.768Z,2.80
2023-08-25T11:05:45.312Z,3.00
2023-08-25T11:08:28.659Z,3.20
2023-08-25T11:11:16.503Z,3.20
2023-08-25T11:13:44.668Z,2.90
2023-08-25T11:16:14.574Z,2.90
2023-08-25T11:18:45.639Z,2.80
2023-08-25T11:21:13.501Z,2.90
2023-08-25T11:23:45.994Z,3.00
2023-08-25T11:26:18.389Z,3.20
2023-08-25T11:28:52.874Z,3.00
2023-08-25T11:31:25.005Z,3.20
2023-08-25T11:33:52.875Z,3.70
2023-08-25T11:36:25.357Z,3.60
2023-08-25T11:38:53.015Z,4.10
2023-08-25T11:41:24.036Z,4.20
2023-08-25T11:43:51.528Z,3.80
2023-08-25T11:46:19.995Z,3.40
2023-08-25T11:48:52.204Z,4.50
2023-08-25T11:51:19.788Z,4.70
2023-08-25T11:53:47.820Z,4.70
2023-08-25T11:56:17.364Z,4.70
2023-08-25T11:58:49.223Z,4.00
2023-08-25T12:01:16.673Z,3.80
2023-08-25T12:03:45.604Z,4.40
2023-08-25T12:06:14.529Z,4.30
2023-08-25T12:08:43.380Z,4.60
2023-08-25T12:11:11.982Z,3.90
2023-08-25T12:13:45.458Z,4.70
2023-08-25T12:16:15.059Z,4.50
2023-08-25T12:18:49.387Z,4.50
2023-08-25T12:21:18.559Z,4.60
2023-08-25T12:23:46.036Z,5.00
2023-08-25T12:26:14.179Z,5.70
2023-08-25T12:28:44.420Z,5.60
2023-08-25T12:31:11.985Z,6.60
2023-08-25T12:33:39.496Z,6.50
2023-08-25T12:36:07.117Z,7.00
2023-08-25T12:38:34.626Z,6.40
2023-08-25T12:41:02.096Z,6.70
2023-08-25T12:43:29.723Z,7.20
2023-08-25T12:45:57.779Z,7.80
2023-08-25T12:48:25.826Z,7.20
2023-08-25T12:50:53.262Z,8.10
2023-08-25T12:53:21.410Z,7.80
2023-08-25T12:55:48.991Z,8.00
2023-08-25T12:58:16.525Z,7.50
2023-08-25T13:00:44.391Z,7.60
2023-08-25T13:03:12.363Z,7.90
2023-08-25T13:05:39.854Z,7.30
2023-08-25T13:08:07.302Z,7.00
2023-08-25T13:10:34.829Z,6.40
2023-08-25T13:13:02.239Z,6.40
2023-08-25T13:15:30.557Z,6.60
2023-08-25T13:17:59.153Z,6.00
2023-08-25T13:20:26.754Z,6.10
2023-08-25T13:22:55.615Z,5.90
2023-08-25T13:25:23.120Z,5.60
2023-08-25T13:27:50.664Z,5.00
2023-08-25T13:30:18.094Z,5.00
2023-08-25T13:32:45.549Z,5.10
2023-08-25T13:35:12.992Z,4.70
2023-08-25T13:37:40.573Z,4.80
2023-08-25T13:40:09.370Z,4.70
2023-08-25T13:42:36.856Z,4.00
2023-08-25T13:45:05.082Z,3.80
2023-08-25T13:47:32.593Z,3.40
2023-08-25T13:50:00.499Z,3.40
2023-08-25T13:52:27.919Z,3.30
2023-08-25T13:54:58.177Z,3.20
2023-08-25T13:57:25.970Z,3.50
2023-08-25T13:59:53.829Z,3.40
2023-08-25T14:02:21.624Z,3.50
2023-08-25T14:04:49.209Z,3.30
2023-08-25T14:07:16.640Z,3.30
2023-08-25T14:09:44.052Z,3.40
2023-08-25T14:12:11.500Z,3.20
2023-08-25T14:14:39.049Z,3.00
2023-08-25T14:17:06.519Z,2.90
2023-08-25T14:19:34.011Z,3.10
2023-08-25T14:22:01.622Z,3.20
2023-08-25T14:24:29.502Z,3.00
2023-08-25T14:26:56.880Z,2.90
2023-08-25T14:29:24.372Z,2.80
2023-08-25T14:31:52.087Z,3.20
2023-08-25T14:34:23.205Z,3.20
2023-08-25T14:36:51.216Z,3.00
2023-08-25T14:39:18.615Z,3.20
2023-08-25T14:41:48.337Z,3.30
2023-08-25T14:46:44.278Z,3.10
2023-08-25T14:49:12.635Z,2.90
2023-08-25T14:51:40.247Z,3.10
2023-08-25T14:54:07.855Z,2.70
2023-08-25T14:56:35.620Z,2.60
2023-08-25T14:59:03.813Z,2.50
2023-08-25T15:01:31.328Z,2.80
2023-08-25T15:03:58.806Z,2.50
2023-08-25T15:06:26.257Z,2.30
2023-08-25T15:08:53.710Z,2.20
2023-08-25T15:11:21.140Z,2.50
2023-08-25T15:13:48.575Z,2.60
2023-08-25T15:16:16.036Z,3.10
2023-08-25T15:18:43.661Z,2.60
2023-08-25T15:21:11.102Z,2.30
2023-08-25T15:23:38.666Z,2.30
2023-08-25T15:26:06.376Z,2.30
2023-08-25T15:28:34.246Z,2.40
2023-08-25T15:31:10.404Z,2.30
2023-08-25T15:33:43.243Z,2.30
2023-08-25T15:36:13.531Z,2.60
2023-08-25T15:38:41.037Z,2.60
2023-08-25T15:41:12.747Z,2.20
2023-08-25T15:43:41.233Z,2.20
2023-08-25T15:46:09.358Z,2.20
2023-08-25T15:48:37.368Z,2.40
2023-08-25T15:51:05.504Z,2.30
2023-08-25T15:53:33.016Z,2.20
2023-08-25T15:56:00.507Z,2.10
2023-08-25T15:58:28.066Z,2.10
2023-08-25T16:01:02.184Z,2.00
2023-08-25T16:03:33.546Z,1.70
2023-08-25T16:06:04.339Z,2.00
2023-08-25T16:08:32.821Z,2.10
2023-08-25T16:11:10.203Z,2.20
2023-08-25T16:13:39.632Z,1.90
2023-08-25T16:16:07.569Z,2.00
2023-08-25T16:18:36.373Z,2.00
2023-08-25T16:21:05.838Z,2.30
2023-08-25T16:23:37.119Z,1.90
2023-08-25T16:26:05.627Z,1.70
2023-08-25T16:28:34.040Z,1.90
2023-08-25T16:31:06.083Z,1.70
2023-08-25T16:33:37.334Z,2.00
2023-08-25T16:36:05.380Z,1.80
2023-08-25T16:38:33.820Z,1.80
2023-08-25T16:41:01.548Z,1.60
2023-08-25T16:43:28.901Z,1.90
2023-08-25T16:45:56.341Z,1.70
2023-08-25T16:48:24.180Z,1.80
2023-08-25T16:50:52.144Z,2.00
2023-08-25T16:53:20.554Z,1.70
2023-08-25T16:55:48.205Z,1.60
2023-08-25T16:58:15.992Z,1.80
2023-08-25T17:00:44.750Z,1.80
2023-08-25T17:03:12.658Z,1.90
2023-08-25T17:05:40.220Z,1.80
2023-08-25T17:08:09.460Z,1.90
2023-08-25T17:10:37.479Z,1.50
2023-08-25T17:13:04.931Z,1.70
2023-08-25T17:15:35.612Z,1.50
2023-08-25T17:18:04.283Z,1.80
2023-08-25T17:20:31.844Z,1.90
2023-08-25T17:22:59.420Z,1.40
2023-08-25T17:25:26.900Z,1.70
2023-08-25T17:27:54.974Z,1.70
2023-08-25T17:30:22.822Z,1.50
2023-08-25T17:32:50.576Z,1.80
2023-08-25T17:35:18.502Z,1.70
2023-08-25T17:37:46.060Z,1.50
2023-08-25T17:40:13.599Z,1.60
2023-08-25T17:42:40.951Z,1.90
2023-08-25T17:45:10.055Z,1.80
2023-08-25T17:47:37.545Z,1.60
2023-08-25T17:50:06.106Z,1.60
2023-08-25T17:52:33.476Z,1.50
2023-08-25T17:55:00.919Z,1.60
2023-08-25T17:57:28.387Z,1.70
2023-08-25T17:59:55.821Z,1.30
2023-08-25T18:02:23.297Z,1.80
2023-08-25T18:04:51.148Z,1.70
2023-08-25T18:07:18.649Z,1.50
2023-08-25T18:09:46.076Z,1.50
2023-08-25T18:12:13.558Z,1.50
2023-08-25T18:14:41.048Z,2.00
2023-08-25T18:17:09.226Z,1.60
2023-08-25T18:19:36.684Z,1.70
2023-08-25T18:22:05.305Z,1.50
2023-08-25T18:24:32.873Z,1.50
2023-08-25T18:27:00.292Z,1.60
2023-08-25T18:29:27.747Z,1.60
2023-08-25T18:31:55.126Z,1.50
2023-08-25T18:34:22.719Z,1.80
2023-08-25T18:36:51.127Z,2.00
2023-08-25T18:39:18.537Z,1.80
2023-08-25T18:41:45.989Z,1.80
2023-08-25T18:44:13.374Z,1.40
2023-08-25T18:46:40.905Z,1.40
2023-08-25T18:49:08.291Z,2.10
2023-08-25T18:51:35.711Z,1.90
2023-08-25T18:54:03.605Z,1.90
2023-08-25T18:56:31.844Z,1.40
2023-08-25T18:58:59.210Z,1.50
2023-08-25T19:01:26.603Z,1.70
2023-08-25T19:03:54.144Z,1.60
2023-08-25T19:06:21.637Z,1.80
2023-08-25T19:08:49.123Z,1.40
2023-08-25T19:11:16.565Z,1.40
2023-08-25T19:13:44.136Z,1.70
2023-08-25T19:16:11.665Z,1.40
2023-08-25T19:18:39.368Z,1.70
2023-08-25T19:21:08.465Z,1.50
2023-08-25T19:23:36.176Z,1.40
2023-08-25T19:26:09.287Z,1.40
2023-08-25T19:28:42.007Z,1.70
2023-08-25T19:31:12.984Z,1.70
2023-08-25T19:33:40.533Z,1.60
2023-08-25T19:36:08.258Z,1.40
2023-08-25T19:38:35.672Z,1.60
2023-08-25T19:41:08.093Z,1.20
2023-08-25T19:43:40.463Z,1.40
2023-08-25T19:46:08.269Z,1.30
2023-08-25T19:48:38.979Z,1.80
2023-08-25T19:51:08.975Z,1.30
2023-08-25T19:53:39.190Z,1.50
2023-08-25T19:56:07.284Z,1.60
2023-08-25T19:58:34.877Z,1.50
2023-08-25T20:01:04.216Z,1.60
2023-08-25T20:03:31.873Z,1.50
2023-08-25T20:06:04.847Z,1.50
2023-08-25T20:08:32.335Z,1.20
2023-08-25T20:11:04.802Z,1.20
2023-08-25T20:13:34.188Z,1.40
2023-08-25T20:16:03.248Z,1.40
2023-08-25T20:18:30.631Z,1.40
2023-08-25T20:20:59.014Z,1.70
2023-08-25T20:23:28.530Z,1.50
2023-08-25T20:25:56.037Z,1.50
2023-08-25T20:28:23.864Z,1.60
2023-08-25T20:30:52.052Z,1.60
2023-08-25T20:33:20.138Z,2.10
2023-08-25T20:35:47.943Z,1.80
2023-08-25T20:38:15.609Z,1.60
2023-08-25T20:40:44.805Z,1.30
2023-08-25T20:43:13.559Z,1.30
2023-08-25T20:45:47.875Z,1.60
2023-08-25T20:48:17.000Z,1.40
2023-08-25T20:50:49.117Z,1.50
2023-08-25T20:53:16.666Z,1.60
2023-08-25T20:55:44.133Z,1.50
2023-08-25T20:58:11.602Z,1.60
2023-08-25T21:00:39.020Z,1.50
2023-08-25T21:03:06.449Z,1.20
2023-08-25T21:05:34.982Z,1.60
2023-08-25T21:08:02.561Z,1.70
2023-08-25T21:10:31.151Z,1.50
2023-08-25T21:12:58.708Z,1.70
2023-08-25T21:15:26.457Z,1.40
2023-08-25T21:17:53.914Z,2.00
2023-08-25T21:20:21.316Z,1.20
2023-08-25T21:22:48.716Z,1.80
2023-08-25T21:25:16.097Z,1.70
2023-08-25T21:27:43.462Z,2.00
2023-08-25T21:30:11.995Z,1.50
2023-08-25T21:32:39.456Z,1.40
2023-08-25T21:35:08.603Z,1.60
2023-08-25T21:37:35.974Z,1.70
2023-08-25T21:40:04.077Z,1.60
2023-08-25T21:42:31.490Z,1.30
2023-08-25T21:44:58.861Z,1.70
2023-08-25T21:47:26.277Z,1.40
2023-08-25T21:49:53.639Z,1.40
2023-08-25T21:52:21.067Z,1.70
2023-08-25T21:54:48.610Z,1.40
2023-08-25T21:57:16.208Z,1.30
2023-08-25T21:59:43.844Z,1.30
2023-08-25T22:02:11.229Z,1.20
2023-08-25T22:04:38.593Z,1.30
2023-08-25T22:07:06.026Z,1.20
2023-08-25T22:09:33.795Z,1.50
2023-08-25T22:12:01.826Z,1.40
2023-08-25T22:14:30.038Z,1.40
2023-08-25T22:16:59.183Z,1.40
2023-08-25T22:19:26.656Z,1.40
2023-08-25T22:21:54.070Z,1.60
2023-08-25T22:24:21.560Z,1.60
2023-08-25T22:26:48.952Z,1.30
2023-08-25T22:29:16.416Z,1.40
2023-08-25T22:31:45.589Z,1.40
2023-08-25T22:34:15.581Z,1.40
2023-08-25T22:36:43.510Z,1.20
2023-08-25T22:39:11.173Z,1.30
2023-08-25T22:41:38.602Z,1.40
2023-08-25T22:44:06.562Z,1.20
2023-08-25T22:46:34.496Z,1.20
2023-08-25T22:49:02.485Z,1.20
2023-08-25T22:51:30.696Z,1.20
2023-08-25T22:53:58.322Z,1.10
2023-08-25T22:56:25.858Z,1.20
2023-08-25T22:58:53.322Z,1.40
2023-08-25T23:01:22.757Z,1.10
2023-08-25T23:03:50.185Z,1.20
2023-08-25T23:06:17.603Z,1.30
2023-08-25T23:08:45.264Z,1.10
2023-08-25T23:11:13.878Z,1.50
2023-08-25T23:13:41.627Z,1.20
2023-08-25T23:16:10.885Z,1.30
2023-08-25T23:18:39.745Z,1.30
2023-08-25T23:21:07.992Z,1.30
2023-08-25T23:23:35.567Z,1.20
2023-08-25T23:26:03.228Z,1.20
2023-08-25T23:28:30.662Z,1.70
2023-08-25T23:30:58.181Z,1.40
2023-08-25T23:33:25.643Z,1.20
2023-08-25T23:35:53.057Z,1.40
2023-08-25T23:38:20.965Z,1.20
2023-08-25T23:40:56.104Z,1.50
2023-08-25T23:43:24.851Z,1.70
2023-08-25T23:45:58.925Z,1.10
2023-08-25T23:48:26.525Z,1.40
2023-08-25T23:50:53.922Z,1.20
2023-08-25T23:53:21.574Z,1.20
2023-08-25T23:55:49.045Z,1.10
2023-08-25T23:58:16.765Z,1.10
